sensor_id;sensor_type;location;lat;lon;timestamp;P1;durP1;ratioP1;P2;durP2;ratioP2
12970;SDS011;6550;48.650;8.774;2023-04-29T00:02:13;0.80;;;0.80;;
12970;SDS011;6550;48.650;8.774;2023-04-29T00:04:39;1.00;;;0.90;;
12970;SDS011;6550;48.650;8.774;2023-04-29T00:07:09;2.50;;;1.00;;
12970;SDS011;6550;48.650;8.774;2023-04-29T00:09:40;4.40;;;1.10;;
12970;SDS011;6550;48.650;8.774;2023-04-29T00:12:07;5.00;;;0.90;;
12970;SDS011;6550;48.650;8.774;2023-04-29T00:14:35;1.10;;;0.67;;
12970;SDS011;6550;48.650;8.774;2023-04-29T00:17:04;2.87;;;0.90;;
12970;SDS011;6550;48.650;8.774;2023-04-29T00:19:31;0.80;;;0.80;;
12970;SDS011;6550;48.650;8.774;2023-04-29T00:22:00;1.10;;;1.00;;
12970;SDS011;6550;48.650;8.774;2023-04-29T00:24:27;2.67;;;0.93;;
12970;SDS011;6550;48.650;8.774;2023-04-29T00:26:59;1.67;;;0.90;;
12970;SDS011;6550;48.650;8.774;2023-04-29T00:29:26;4.33;;;1.07;;
12970;SDS011;6550;48.650;8.774;2023-04-29T00:31:53;1.17;;;1.07;;
12970;SDS011;6550;48.650;8.774;2023-04-29T00:34:23;1.77;;;1.20;;
12970;SDS011;6550;48.650;8.774;2023-04-29T00:36:50;0.97;;;0.93;;
12970;SDS011;6550;48.650;8.774;2023-04-29T00:39:17;0.93;;;0.93;;
12970;SDS011;6550;48.650;8.774;2023-04-29T00:41:43;1.13;;;1.03;;
12970;SDS011;6550;48.650;8.774;2023-04-29T00:44:13;0.98;;;0.90;;
12970;SDS011;6550;48.650;8.774;2023-04-29T00:46:44;2.40;;;1.00;;
12970;SDS011;6550;48.650;8.774;2023-04-29T00:49:11;0.90;;;0.90;;
12970;SDS011;6550;48.650;8.774;2023-04-29T00:51:41;3.03;;;1.20;;
12970;SDS011;6550;48.650;8.774;2023-04-29T00:54:09;1.07;;;1.03;;
12970;SDS011;6550;48.650;8.774;2023-04-29T00:56:36;1.27;;;1.00;;
12970;SDS011;6550;48.650;8.774;2023-04-29T00:59:07;1.25;;;0.88;;
12970;SDS011;6550;48.650;8.774;2023-04-29T01:01:35;0.90;;;0.80;;
12970;SDS011;6550;48.650;8.774;2023-04-29T01:04:07;1.00;;;1.00;;
12970;SDS011;6550;48.650;8.774;2023-04-29T01:15:37;2.30;;;1.03;;
12970;SDS011;6550;48.650;8.774;2023-04-29T01:18:23;2.03;;;1.20;;
12970;SDS011;6550;48.650;8.774;2023-04-29T01:20:55;4.03;;;1.30;;
12970;SDS011;6550;48.650;8.774;2023-04-29T01:23:27;1.43;;;1.30;;
12970;SDS011;6550;48.650;8.774;2023-04-29T01:25:55;2.97;;;1.30;;
12970;SDS011;6550;48.650;8.774;2023-04-29T01:30:51;1.40;;;1.30;;
12970;SDS011;6550;48.650;8.774;2023-04-29T01:39:56;1.90;;;0.90;;
12970;SDS011;6550;48.650;8.774;2023-04-29T01:42:37;0.90;;;0.90;;
12970;SDS011;6550;48.650;8.774;2023-04-29T01:45:08;5.03;;;0.90;;
12970;SDS011;6550;48.650;8.774;2023-04-29T01:47:36;6.03;;;1.10;;
12970;SDS011;6550;48.650;8.774;2023-04-29T01:50:04;1.20;;;0.73;;
12970;SDS011;6550;48.650;8.774;2023-04-29T01:52:33;1.00;;;0.90;;
12970;SDS011;6550;48.650;8.774;2023-04-29T01:55:01;0.90;;;0.90;;
12970;SDS011;6550;48.650;8.774;2023-04-29T01:57:29;0.93;;;0.93;;
12970;SDS011;6550;48.650;8.774;2023-04-29T01:59:56;1.07;;;0.90;;
12970;SDS011;6550;48.650;8.774;2023-04-29T02:02:25;1.10;;;0.83;;
12970;SDS011;6550;48.650;8.774;2023-04-29T02:04:52;1.83;;;1.17;;
12970;SDS011;6550;48.650;8.774;2023-04-29T02:07:18;0.90;;;0.90;;
12970;SDS011;6550;48.650;8.774;2023-04-29T02:09:47;1.50;;;0.90;;
12970;SDS011;6550;48.650;8.774;2023-04-29T02:12:17;0.80;;;0.80;;
12970;SDS011;6550;48.650;8.774;2023-04-29T02:14:43;2.70;;;1.10;;
12970;SDS011;6550;48.650;8.774;2023-04-29T02:17:13;1.23;;;1.10;;
12970;SDS011;6550;48.650;8.774;2023-04-29T02:19:40;0.90;;;0.90;;
12970;SDS011;6550;48.650;8.774;2023-04-29T02:22:06;1.50;;;1.40;;
12970;SDS011;6550;48.650;8.774;2023-04-29T02:24:37;3.30;;;1.07;;
12970;SDS011;6550;48.650;8.774;2023-04-29T02:27:04;1.37;;;1.23;;
12970;SDS011;6550;48.650;8.774;2023-04-29T02:29:35;1.13;;;1.03;;
12970;SDS011;6550;48.650;8.774;2023-04-29T02:32:02;2.00;;;1.03;;
12970;SDS011;6550;48.650;8.774;2023-04-29T02:34:29;3.00;;;1.00;;
12970;SDS011;6550;48.650;8.774;2023-04-29T02:36:58;1.40;;;1.03;;
12970;SDS011;6550;48.650;8.774;2023-04-29T02:39:25;3.90;;;1.17;;
12970;SDS011;6550;48.650;8.774;2023-04-29T02:41:53;2.00;;;1.00;;
12970;SDS011;6550;48.650;8.774;2023-04-29T02:44:22;1.67;;;0.90;;
12970;SDS011;6550;48.650;8.774;2023-04-29T02:46:49;1.00;;;0.90;;
12970;SDS011;6550;48.650;8.774;2023-04-29T02:49:18;2.50;;;0.97;;
12970;SDS011;6550;48.650;8.774;2023-04-29T02:51:47;1.00;;;0.70;;
12970;SDS011;6550;48.650;8.774;2023-04-29T02:54:17;1.73;;;1.00;;
12970;SDS011;6550;48.650;8.774;2023-04-29T02:56:43;1.20;;;0.93;;
12970;SDS011;6550;48.650;8.774;2023-04-29T02:59:10;2.83;;;0.80;;
12970;SDS011;6550;48.650;8.774;2023-04-29T03:01:37;1.27;;;0.80;;
12970;SDS011;6550;48.650;8.774;2023-04-29T03:04:04;2.07;;;1.00;;
12970;SDS011;6550;48.650;8.774;2023-04-29T03:06:31;1.70;;;0.70;;
12970;SDS011;6550;48.650;8.774;2023-04-29T03:08:58;3.50;;;0.80;;
12970;SDS011;6550;48.650;8.774;2023-04-29T03:11:28;0.67;;;0.67;;
12970;SDS011;6550;48.650;8.774;2023-04-29T03:13:54;0.70;;;0.70;;
12970;SDS011;6550;48.650;8.774;2023-04-29T03:16:21;0.93;;;0.90;;
12970;SDS011;6550;48.650;8.774;2023-04-29T03:18:50;1.00;;;0.83;;
12970;SDS011;6550;48.650;8.774;2023-04-29T03:21:19;2.07;;;1.00;;
12970;SDS011;6550;48.650;8.774;2023-04-29T03:23:46;3.07;;;0.93;;
12970;SDS011;6550;48.650;8.774;2023-04-29T03:26:13;3.37;;;1.07;;
12970;SDS011;6550;48.650;8.774;2023-04-29T03:28:39;2.17;;;0.90;;
12970;SDS011;6550;48.650;8.774;2023-04-29T03:31:07;1.03;;;1.00;;
12970;SDS011;6550;48.650;8.774;2023-04-29T03:33:33;6.03;;;1.30;;
12970;SDS011;6550;48.650;8.774;2023-04-29T03:36:00;3.83;;;1.23;;
12970;SDS011;6550;48.650;8.774;2023-04-29T03:38:32;1.10;;;1.00;;
12970;SDS011;6550;48.650;8.774;2023-04-29T03:41:00;3.77;;;1.40;;
12970;SDS011;6550;48.650;8.774;2023-04-29T03:43:29;1.20;;;1.10;;
12970;SDS011;6550;48.650;8.774;2023-04-29T03:45:58;1.10;;;1.10;;
12970;SDS011;6550;48.650;8.774;2023-04-29T03:48:27;1.93;;;1.30;;
12970;SDS011;6550;48.650;8.774;2023-04-29T03:50:57;3.33;;;1.20;;
12970;SDS011;6550;48.650;8.774;2023-04-29T03:53:23;1.93;;;1.10;;
12970;SDS011;6550;48.650;8.774;2023-04-29T03:55:53;1.50;;;1.20;;
12970;SDS011;6550;48.650;8.774;2023-04-29T03:58:21;4.00;;;1.00;;
12970;SDS011;6550;48.650;8.774;2023-04-29T04:00:49;12.77;;;1.70;;
12970;SDS011;6550;48.650;8.774;2023-04-29T04:03:15;19.53;;;2.20;;
12970;SDS011;6550;48.650;8.774;2023-04-29T04:05:42;22.27;;;1.80;;
12970;SDS011;6550;48.650;8.774;2023-04-29T04:08:09;14.47;;;1.80;;
12970;SDS011;6550;48.650;8.774;2023-04-29T04:10:36;7.83;;;1.23;;
12970;SDS011;6550;48.650;8.774;2023-04-29T04:13:05;5.10;;;1.03;;
12970;SDS011;6550;48.650;8.774;2023-04-29T04:15:32;15.27;;;1.60;;
12970;SDS011;6550;48.650;8.774;2023-04-29T04:18:01;11.27;;;2.67;;
12970;SDS011;6550;48.650;8.774;2023-04-29T04:20:27;35.57;;;2.90;;
12970;SDS011;6550;48.650;8.774;2023-04-29T04:22:54;9.43;;;2.73;;
12970;SDS011;6550;48.650;8.774;2023-04-29T04:25:23;12.13;;;1.87;;
12970;SDS011;6550;48.650;8.774;2023-04-29T04:27:52;7.67;;;1.50;;
12970;SDS011;6550;48.650;8.774;2023-04-29T04:30:19;3.90;;;1.43;;
12970;SDS011;6550;48.650;8.774;2023-04-29T04:32:46;4.43;;;0.98;;
12970;SDS011;6550;48.650;8.774;2023-04-29T04:35:18;3.63;;;1.10;;
12970;SDS011;6550;48.650;8.774;2023-04-29T04:37:44;1.73;;;0.90;;
12970;SDS011;6550;48.650;8.774;2023-04-29T04:40:11;17.50;;;1.60;;
12970;SDS011;6550;48.650;8.774;2023-04-29T04:42:38;2.40;;;0.80;;
12970;SDS011;6550;48.650;8.774;2023-04-29T04:45:05;5.70;;;1.20;;
12970;SDS011;6550;48.650;8.774;2023-04-29T04:47:34;4.00;;;0.90;;
12970;SDS011;6550;48.650;8.774;2023-04-29T04:50:04;2.38;;;0.93;;
12970;SDS011;6550;48.650;8.774;2023-04-29T04:52:34;3.20;;;0.90;;
12970;SDS011;6550;48.650;8.774;2023-04-29T04:55:01;0.83;;;0.83;;
12970;SDS011;6550;48.650;8.774;2023-04-29T04:57:28;8.33;;;1.10;;
12970;SDS011;6550;48.650;8.774;2023-04-29T04:59:54;3.43;;;1.00;;
12970;SDS011;6550;48.650;8.774;2023-04-29T05:02:23;3.63;;;1.20;;
12970;SDS011;6550;48.650;8.774;2023-04-29T05:04:55;4.50;;;1.07;;
12970;SDS011;6550;48.650;8.774;2023-04-29T05:07:24;1.67;;;0.93;;
12970;SDS011;6550;48.650;8.774;2023-04-29T05:09:51;10.70;;;1.20;;
12970;SDS011;6550;48.650;8.774;2023-04-29T05:12:18;3.93;;;1.30;;
12970;SDS011;6550;48.650;8.774;2023-04-29T05:14:47;7.80;;;1.30;;
12970;SDS011;6550;48.650;8.774;2023-04-29T05:17:17;9.67;;;1.67;;
12970;SDS011;6550;48.650;8.774;2023-04-29T05:19:46;4.73;;;1.97;;
12970;SDS011;6550;48.650;8.774;2023-04-29T05:22:13;3.57;;;1.40;;
12970;SDS011;6550;48.650;8.774;2023-04-29T05:24:42;1.77;;;1.10;;
12970;SDS011;6550;48.650;8.774;2023-04-29T05:27:09;3.70;;;1.63;;
12970;SDS011;6550;48.650;8.774;2023-04-29T05:29:38;1.60;;;1.50;;
12970;SDS011;6550;48.650;8.774;2023-04-29T05:32:05;11.70;;;1.83;;
12970;SDS011;6550;48.650;8.774;2023-04-29T05:34:34;7.70;;;2.23;;
12970;SDS011;6550;48.650;8.774;2023-04-29T05:37:01;11.70;;;2.10;;
12970;SDS011;6550;48.650;8.774;2023-04-29T05:39:30;8.00;;;1.60;;
12970;SDS011;6550;48.650;8.774;2023-04-29T05:41:57;17.03;;;2.07;;
12970;SDS011;6550;48.650;8.774;2023-04-29T05:44:24;3.28;;;1.60;;
12970;SDS011;6550;48.650;8.774;2023-04-29T05:46:51;8.33;;;1.57;;
12970;SDS011;6550;48.650;8.774;2023-04-29T05:49:20;3.80;;;1.67;;
12970;SDS011;6550;48.650;8.774;2023-04-29T05:51:49;1.53;;;1.43;;
12970;SDS011;6550;48.650;8.774;2023-04-29T05:54:18;31.20;;;2.27;;
12970;SDS011;6550;48.650;8.774;2023-04-29T05:56:49;168.57;;;10.17;;
12970;SDS011;6550;48.650;8.774;2023-04-29T05:59:18;169.03;;;8.83;;
12970;SDS011;6550;48.650;8.774;2023-04-29T06:01:45;88.57;;;6.90;;
12970;SDS011;6550;48.650;8.774;2023-04-29T06:04:11;112.30;;;7.53;;
12970;SDS011;6550;48.650;8.774;2023-04-29T06:06:39;58.10;;;5.03;;
12970;SDS011;6550;48.650;8.774;2023-04-29T06:09:05;72.53;;;4.40;;
12970;SDS011;6550;48.650;8.774;2023-04-29T06:11:45;40.77;;;3.73;;
12970;SDS011;6550;48.650;8.774;2023-04-29T06:14:14;29.17;;;3.23;;
12970;SDS011;6550;48.650;8.774;2023-04-29T06:16:41;38.80;;;3.40;;
12970;SDS011;6550;48.650;8.774;2023-04-29T06:19:11;38.63;;;3.17;;
12970;SDS011;6550;48.650;8.774;2023-04-29T06:21:38;64.85;;;5.53;;
12970;SDS011;6550;48.650;8.774;2023-04-29T06:24:07;42.30;;;4.40;;
12970;SDS011;6550;48.650;8.774;2023-04-29T06:26:36;39.73;;;4.17;;
12970;SDS011;6550;48.650;8.774;2023-04-29T06:29:03;41.27;;;3.23;;
12970;SDS011;6550;48.650;8.774;2023-04-29T06:31:29;43.70;;;3.93;;
12970;SDS011;6550;48.650;8.774;2023-04-29T06:33:59;22.77;;;2.63;;
12970;SDS011;6550;48.650;8.774;2023-04-29T06:36:28;21.90;;;2.33;;
12970;SDS011;6550;48.650;8.774;2023-04-29T06:38:55;8.47;;;1.60;;
12970;SDS011;6550;48.650;8.774;2023-04-29T06:41:21;7.57;;;1.50;;
12970;SDS011;6550;48.650;8.774;2023-04-29T06:43:48;2.57;;;1.30;;
12970;SDS011;6550;48.650;8.774;2023-04-29T06:46:15;2.53;;;1.10;;
12970;SDS011;6550;48.650;8.774;2023-04-29T06:48:42;2.60;;;0.80;;
12970;SDS011;6550;48.650;8.774;2023-04-29T06:51:09;11.63;;;1.37;;
12970;SDS011;6550;48.650;8.774;2023-04-29T06:53:36;18.93;;;1.67;;
12970;SDS011;6550;48.650;8.774;2023-04-29T06:56:03;31.27;;;3.00;;
12970;SDS011;6550;48.650;8.774;2023-04-29T06:58:30;26.47;;;2.80;;
12970;SDS011;6550;48.650;8.774;2023-04-29T07:01:02;7.20;;;1.37;;
12970;SDS011;6550;48.650;8.774;2023-04-29T07:03:29;3.53;;;1.23;;
12970;SDS011;6550;48.650;8.774;2023-04-29T07:05:59;3.50;;;1.10;;
12970;SDS011;6550;48.650;8.774;2023-04-29T07:08:26;5.57;;;1.20;;
12970;SDS011;6550;48.650;8.774;2023-04-29T07:10:54;16.03;;;1.50;;
12970;SDS011;6550;48.650;8.774;2023-04-29T07:13:24;41.80;;;2.87;;
12970;SDS011;6550;48.650;8.774;2023-04-29T07:15:51;62.20;;;4.47;;
12970;SDS011;6550;48.650;8.774;2023-04-29T07:18:18;33.30;;;2.87;;
12970;SDS011;6550;48.650;8.774;2023-04-29T07:20:45;21.10;;;2.27;;
12970;SDS011;6550;48.650;8.774;2023-04-29T07:23:18;8.53;;;1.83;;
12970;SDS011;6550;48.650;8.774;2023-04-29T07:25:47;12.23;;;1.60;;
12970;SDS011;6550;48.650;8.774;2023-04-29T07:28:17;14.30;;;2.23;;
12970;SDS011;6550;48.650;8.774;2023-04-29T07:30:44;13.90;;;1.87;;
12970;SDS011;6550;48.650;8.774;2023-04-29T07:33:11;5.40;;;0.90;;
12970;SDS011;6550;48.650;8.774;2023-04-29T07:35:38;4.37;;;0.60;;
12970;SDS011;6550;48.650;8.774;2023-04-29T07:38:08;1.17;;;1.07;;
12970;SDS011;6550;48.650;8.774;2023-04-29T07:40:35;6.50;;;1.00;;
12970;SDS011;6550;48.650;8.774;2023-04-29T07:43:02;7.57;;;1.50;;
12970;SDS011;6550;48.650;8.774;2023-04-29T07:45:30;30.30;;;2.20;;
12970;SDS011;6550;48.650;8.774;2023-04-29T07:48:00;17.87;;;1.50;;
12970;SDS011;6550;48.650;8.774;2023-04-29T07:50:28;22.40;;;2.20;;
12970;SDS011;6550;48.650;8.774;2023-04-29T07:52:57;22.20;;;1.87;;
12970;SDS011;6550;48.650;8.774;2023-04-29T07:55:27;12.17;;;1.70;;
12970;SDS011;6550;48.650;8.774;2023-04-29T07:58:02;14.03;;;1.57;;
12970;SDS011;6550;48.650;8.774;2023-04-29T08:00:29;14.60;;;1.70;;
12970;SDS011;6550;48.650;8.774;2023-04-29T08:02:58;14.00;;;1.77;;
12970;SDS011;6550;48.650;8.774;2023-04-29T08:05:25;5.53;;;1.40;;
12970;SDS011;6550;48.650;8.774;2023-04-29T08:07:53;13.03;;;1.63;;
12970;SDS011;6550;48.650;8.774;2023-04-29T08:10:22;7.93;;;1.10;;
12970;SDS011;6550;48.650;8.774;2023-04-29T08:12:49;5.23;;;1.30;;
12970;SDS011;6550;48.650;8.774;2023-04-29T08:15:18;3.87;;;1.03;;
12970;SDS011;6550;48.650;8.774;2023-04-29T08:17:45;12.27;;;1.47;;
12970;SDS011;6550;48.650;8.774;2023-04-29T08:20:14;9.80;;;1.00;;
12970;SDS011;6550;48.650;8.774;2023-04-29T08:22:41;5.30;;;0.90;;
12970;SDS011;6550;48.650;8.774;2023-04-29T08:25:08;3.40;;;0.90;;
12970;SDS011;6550;48.650;8.774;2023-04-29T08:27:35;8.53;;;1.00;;
12970;SDS011;6550;48.650;8.774;2023-04-29T08:30:02;1.60;;;0.70;;
12970;SDS011;6550;48.650;8.774;2023-04-29T08:32:34;7.37;;;1.13;;
12970;SDS011;6550;48.650;8.774;2023-04-29T08:35:01;11.73;;;1.07;;
12970;SDS011;6550;48.650;8.774;2023-04-29T08:37:31;0.60;;;0.60;;
12970;SDS011;6550;48.650;8.774;2023-04-29T08:40:00;1.60;;;0.60;;
12970;SDS011;6550;48.650;8.774;2023-04-29T08:42:36;5.53;;;0.77;;
12970;SDS011;6550;48.650;8.774;2023-04-29T08:45:06;4.83;;;0.70;;
12970;SDS011;6550;48.650;8.774;2023-04-29T08:47:33;5.40;;;0.80;;
12970;SDS011;6550;48.650;8.774;2023-04-29T08:50:04;3.87;;;0.70;;
12970;SDS011;6550;48.650;8.774;2023-04-29T08:52:31;4.17;;;0.70;;
12970;SDS011;6550;48.650;8.774;2023-04-29T08:55:03;2.27;;;0.63;;
12970;SDS011;6550;48.650;8.774;2023-04-29T08:57:36;8.53;;;0.80;;
12970;SDS011;6550;48.650;8.774;2023-04-29T09:00:08;2.43;;;0.97;;
12970;SDS011;6550;48.650;8.774;2023-04-29T09:02:46;3.30;;;0.60;;
12970;SDS011;6550;48.650;8.774;2023-04-29T09:05:16;1.50;;;0.60;;
12970;SDS011;6550;48.650;8.774;2023-04-29T09:07:47;2.87;;;0.63;;
12970;SDS011;6550;48.650;8.774;2023-04-29T09:10:15;1.67;;;0.53;;
12970;SDS011;6550;48.650;8.774;2023-04-29T09:12:43;1.03;;;0.53;;
12970;SDS011;6550;48.650;8.774;2023-04-29T09:15:11;5.83;;;0.87;;
12970;SDS011;6550;48.650;8.774;2023-04-29T09:17:45;2.27;;;0.73;;
12970;SDS011;6550;48.650;8.774;2023-04-29T09:22:51;2.27;;;1.00;;
12970;SDS011;6550;48.650;8.774;2023-04-29T09:25:21;8.93;;;0.80;;
12970;SDS011;6550;48.650;8.774;2023-04-29T09:27:53;0.70;;;0.70;;
12970;SDS011;6550;48.650;8.774;2023-04-29T09:30:21;0.93;;;0.60;;
12970;SDS011;6550;48.650;8.774;2023-04-29T09:33:05;1.93;;;0.77;;
12970;SDS011;6550;48.650;8.774;2023-04-29T09:35:33;1.10;;;0.60;;
12970;SDS011;6550;48.650;8.774;2023-04-29T09:38:13;5.13;;;0.70;;
12970;SDS011;6550;48.650;8.774;2023-04-29T09:40:42;0.70;;;0.70;;
12970;SDS011;6550;48.650;8.774;2023-04-29T09:43:23;0.67;;;0.60;;
12970;SDS011;6550;48.650;8.774;2023-04-29T09:45:51;1.87;;;0.80;;
12970;SDS011;6550;48.650;8.774;2023-04-29T09:48:20;1.70;;;0.63;;
12970;SDS011;6550;48.650;8.774;2023-04-29T09:50:57;0.70;;;0.70;;
12970;SDS011;6550;48.650;8.774;2023-04-29T09:53:29;1.23;;;0.80;;
12970;SDS011;6550;48.650;8.774;2023-04-29T09:56:03;4.57;;;1.00;;
12970;SDS011;6550;48.650;8.774;2023-04-29T09:58:33;0.77;;;0.70;;
12970;SDS011;6550;48.650;8.774;2023-04-29T10:01:04;2.53;;;0.80;;
12970;SDS011;6550;48.650;8.774;2023-04-29T10:03:33;1.77;;;0.60;;
12970;SDS011;6550;48.650;8.774;2023-04-29T10:06:02;0.70;;;0.70;;
12970;SDS011;6550;48.650;8.774;2023-04-29T10:08:30;0.97;;;0.70;;
12970;SDS011;6550;48.650;8.774;2023-04-29T10:11:01;0.80;;;0.80;;
12970;SDS011;6550;48.650;8.774;2023-04-29T10:13:31;2.20;;;0.80;;
12970;SDS011;6550;48.650;8.774;2023-04-29T10:18:40;1.50;;;0.70;;
12970;SDS011;6550;48.650;8.774;2023-04-29T10:21:14;2.40;;;0.90;;
12970;SDS011;6550;48.650;8.774;2023-04-29T10:23:43;4.83;;;1.13;;
12970;SDS011;6550;48.650;8.774;2023-04-29T10:26:11;14.80;;;2.03;;
12970;SDS011;6550;48.650;8.774;2023-04-29T10:28:40;20.87;;;2.70;;
12970;SDS011;6550;48.650;8.774;2023-04-29T10:31:08;13.77;;;1.70;;
12970;SDS011;6550;48.650;8.774;2023-04-29T10:33:36;6.33;;;0.77;;
12970;SDS011;6550;48.650;8.774;2023-04-29T10:36:08;6.07;;;1.20;;
12970;SDS011;6550;48.650;8.774;2023-04-29T10:38:38;20.53;;;2.50;;
12970;SDS011;6550;48.650;8.774;2023-04-29T10:41:19;14.50;;;1.57;;
12970;SDS011;6550;48.650;8.774;2023-04-29T10:43:53;18.73;;;2.23;;
12970;SDS011;6550;48.650;8.774;2023-04-29T10:46:24;84.17;;;7.50;;
12970;SDS011;6550;48.650;8.774;2023-04-29T10:48:56;89.23;;;6.60;;
12970;SDS011;6550;48.650;8.774;2023-04-29T10:54:08;57.33;;;4.97;;
12970;SDS011;6550;48.650;8.774;2023-04-29T10:56:36;43.67;;;4.13;;
12970;SDS011;6550;48.650;8.774;2023-04-29T10:59:10;61.07;;;5.23;;
12970;SDS011;6550;48.650;8.774;2023-04-29T11:04:08;15.47;;;2.00;;
12970;SDS011;6550;48.650;8.774;2023-04-29T11:09:03;9.57;;;1.90;;
12970;SDS011;6550;48.650;8.774;2023-04-29T11:12:16;49.87;;;4.33;;
12970;SDS011;6550;48.650;8.774;2023-04-29T11:14:38;30.23;;;2.70;;
12970;SDS011;6550;48.650;8.774;2023-04-29T11:17:09;13.77;;;1.80;;
12970;SDS011;6550;48.650;8.774;2023-04-29T11:22:12;19.00;;;2.47;;
12970;SDS011;6550;48.650;8.774;2023-04-29T11:27:24;4.23;;;1.60;;
12970;SDS011;6550;48.650;8.774;2023-04-29T11:29:56;5.03;;;1.93;;
12970;SDS011;6550;48.650;8.774;2023-04-29T11:32:27;5.53;;;1.20;;
12970;SDS011;6550;48.650;8.774;2023-04-29T11:37:37;7.97;;;1.50;;
12970;SDS011;6550;48.650;8.774;2023-04-29T11:40:07;3.70;;;1.57;;
12970;SDS011;6550;48.650;8.774;2023-04-29T11:42:39;8.80;;;1.83;;
12970;SDS011;6550;48.650;8.774;2023-04-29T11:45:07;7.80;;;1.27;;
12970;SDS011;6550;48.650;8.774;2023-04-29T11:47:34;12.33;;;1.70;;
12970;SDS011;6550;48.650;8.774;2023-04-29T11:50:06;20.93;;;2.03;;
12970;SDS011;6550;48.650;8.774;2023-04-29T11:52:38;6.77;;;1.77;;
12970;SDS011;6550;48.650;8.774;2023-04-29T11:55:09;6.20;;;1.20;;
12970;SDS011;6550;48.650;8.774;2023-04-29T11:57:37;5.73;;;1.27;;
12970;SDS011;6550;48.650;8.774;2023-04-29T12:00:10;6.33;;;1.47;;
12970;SDS011;6550;48.650;8.774;2023-04-29T12:02:44;20.43;;;2.10;;
12970;SDS011;6550;48.650;8.774;2023-04-29T12:05:17;35.73;;;2.63;;
12970;SDS011;6550;48.650;8.774;2023-04-29T12:07:45;32.40;;;3.70;;
12970;SDS011;6550;48.650;8.774;2023-04-29T12:10:14;19.87;;;2.60;;
12970;SDS011;6550;48.650;8.774;2023-04-29T12:12:40;22.23;;;2.63;;
12970;SDS011;6550;48.650;8.774;2023-04-29T12:15:09;15.50;;;2.10;;
12970;SDS011;6550;48.650;8.774;2023-04-29T12:17:37;8.00;;;1.30;;
12970;SDS011;6550;48.650;8.774;2023-04-29T12:20:07;32.67;;;3.30;;
12970;SDS011;6550;48.650;8.774;2023-04-29T12:22:36;42.10;;;3.20;;
12970;SDS011;6550;48.650;8.774;2023-04-29T12:25:03;32.10;;;2.33;;
12970;SDS011;6550;48.650;8.774;2023-04-29T12:27:33;55.10;;;3.80;;
12970;SDS011;6550;48.650;8.774;2023-04-29T12:30:07;77.00;;;6.27;;
12970;SDS011;6550;48.650;8.774;2023-04-29T12:32:36;79.37;;;4.70;;
12970;SDS011;6550;48.650;8.774;2023-04-29T12:35:13;46.87;;;4.20;;
12970;SDS011;6550;48.650;8.774;2023-04-29T12:37:44;36.83;;;2.73;;
12970;SDS011;6550;48.650;8.774;2023-04-29T12:40:13;39.73;;;3.67;;
12970;SDS011;6550;48.650;8.774;2023-04-29T12:42:44;23.43;;;2.33;;
12970;SDS011;6550;48.650;8.774;2023-04-29T12:48:13;53.23;;;3.63;;
12970;SDS011;6550;48.650;8.774;2023-04-29T12:50:55;31.50;;;2.37;;
12970;SDS011;6550;48.650;8.774;2023-04-29T12:53:23;21.73;;;1.67;;
12970;SDS011;6550;48.650;8.774;2023-04-29T12:55:53;22.57;;;2.63;;
12970;SDS011;6550;48.650;8.774;2023-04-29T12:58:20;36.60;;;3.20;;
12970;SDS011;6550;48.650;8.774;2023-04-29T13:00:49;93.07;;;5.30;;
12970;SDS011;6550;48.650;8.774;2023-04-29T13:03:16;85.27;;;5.40;;
12970;SDS011;6550;48.650;8.774;2023-04-29T13:05:47;124.27;;;6.53;;
12970;SDS011;6550;48.650;8.774;2023-04-29T13:08:20;57.57;;;4.40;;
12970;SDS011;6550;48.650;8.774;2023-04-29T13:10:47;39.93;;;2.83;;
12970;SDS011;6550;48.650;8.774;2023-04-29T13:13:14;20.13;;;1.67;;
12970;SDS011;6550;48.650;8.774;2023-04-29T13:15:44;23.97;;;1.70;;
12970;SDS011;6550;48.650;8.774;2023-04-29T13:18:13;7.77;;;1.23;;
12970;SDS011;6550;48.650;8.774;2023-04-29T13:20:40;10.77;;;1.77;;
12970;SDS011;6550;48.650;8.774;2023-04-29T13:23:09;35.57;;;3.33;;
12970;SDS011;6550;48.650;8.774;2023-04-29T13:25:39;39.47;;;2.97;;
12970;SDS011;6550;48.650;8.774;2023-04-29T13:28:07;47.53;;;3.70;;
12970;SDS011;6550;48.650;8.774;2023-04-29T13:30:36;83.10;;;5.70;;
12970;SDS011;6550;48.650;8.774;2023-04-29T13:33:03;73.33;;;4.90;;
12970;SDS011;6550;48.650;8.774;2023-04-29T13:35:38;36.63;;;3.50;;
12970;SDS011;6550;48.650;8.774;2023-04-29T13:38:07;21.70;;;2.60;;
12970;SDS011;6550;48.650;8.774;2023-04-29T13:40:34;16.60;;;2.20;;
12970;SDS011;6550;48.650;8.774;2023-04-29T13:43:05;10.30;;;2.57;;
12970;SDS011;6550;48.650;8.774;2023-04-29T13:45:37;11.73;;;2.33;;
12970;SDS011;6550;48.650;8.774;2023-04-29T13:48:11;14.33;;;2.70;;
12970;SDS011;6550;48.650;8.774;2023-04-29T13:51:00;4.90;;;2.33;;
12970;SDS011;6550;48.650;8.774;2023-04-29T13:53:30;10.97;;;2.50;;
12970;SDS011;6550;48.650;8.774;2023-04-29T13:55:59;39.30;;;4.60;;
12970;SDS011;6550;48.650;8.774;2023-04-29T13:58:46;25.97;;;3.47;;
12970;SDS011;6550;48.650;8.774;2023-04-29T14:01:18;18.20;;;3.80;;
12970;SDS011;6550;48.650;8.774;2023-04-29T14:03:53;26.40;;;3.30;;
12970;SDS011;6550;48.650;8.774;2023-04-29T14:06:20;36.50;;;4.10;;
12970;SDS011;6550;48.650;8.774;2023-04-29T14:08:47;33.27;;;3.53;;
12970;SDS011;6550;48.650;8.774;2023-04-29T14:11:18;41.13;;;4.00;;
12970;SDS011;6550;48.650;8.774;2023-04-29T14:13:47;81.40;;;5.47;;
12970;SDS011;6550;48.650;8.774;2023-04-29T14:16:14;54.47;;;5.17;;
12970;SDS011;6550;48.650;8.774;2023-04-29T14:18:44;50.60;;;5.83;;
12970;SDS011;6550;48.650;8.774;2023-04-29T14:21:11;45.87;;;4.53;;
12970;SDS011;6550;48.650;8.774;2023-04-29T14:23:40;36.73;;;5.73;;
12970;SDS011;6550;48.650;8.774;2023-04-29T14:26:07;40.57;;;5.33;;
12970;SDS011;6550;48.650;8.774;2023-04-29T14:28:53;30.40;;;4.00;;
12970;SDS011;6550;48.650;8.774;2023-04-29T14:33:54;14.63;;;3.50;;
12970;SDS011;6550;48.650;8.774;2023-04-29T14:36:24;13.47;;;3.30;;
12970;SDS011;6550;48.650;8.774;2023-04-29T14:38:51;5.97;;;3.10;;
12970;SDS011;6550;48.650;8.774;2023-04-29T14:41:21;9.47;;;3.10;;
12970;SDS011;6550;48.650;8.774;2023-04-29T14:43:47;25.13;;;3.90;;
12970;SDS011;6550;48.650;8.774;2023-04-29T14:46:14;15.07;;;3.13;;
12970;SDS011;6550;48.650;8.774;2023-04-29T14:48:44;7.67;;;3.03;;
12970;SDS011;6550;48.650;8.774;2023-04-29T14:51:11;9.50;;;3.27;;
12970;SDS011;6550;48.650;8.774;2023-04-29T14:53:38;13.87;;;3.20;;
12970;SDS011;6550;48.650;8.774;2023-04-29T14:56:08;27.77;;;4.97;;
12970;SDS011;6550;48.650;8.774;2023-04-29T14:58:34;33.23;;;5.10;;
12970;SDS011;6550;48.650;8.774;2023-04-29T15:01:01;84.00;;;7.17;;
12970;SDS011;6550;48.650;8.774;2023-04-29T15:03:31;127.80;;;8.57;;
12970;SDS011;6550;48.650;8.774;2023-04-29T15:05:59;51.07;;;7.03;;
12970;SDS011;6550;48.650;8.774;2023-04-29T15:08:30;104.87;;;8.00;;
12970;SDS011;6550;48.650;8.774;2023-04-29T15:10:59;54.73;;;10.47;;
12970;SDS011;6550;48.650;8.774;2023-04-29T15:13:28;49.37;;;8.00;;
12970;SDS011;6550;48.650;8.774;2023-04-29T15:15:57;53.77;;;6.37;;
12970;SDS011;6550;48.650;8.774;2023-04-29T15:18:26;98.20;;;8.00;;
12970;SDS011;6550;48.650;8.774;2023-04-29T15:20:53;56.27;;;6.47;;
12970;SDS011;6550;48.650;8.774;2023-04-29T15:23:20;71.53;;;7.60;;
12970;SDS011;6550;48.650;8.774;2023-04-29T15:25:47;42.57;;;5.10;;
12970;SDS011;6550;48.650;8.774;2023-04-29T15:28:16;40.33;;;4.70;;
12970;SDS011;6550;48.650;8.774;2023-04-29T15:30:43;65.70;;;6.30;;
12970;SDS011;6550;48.650;8.774;2023-04-29T15:33:12;108.07;;;8.73;;
12970;SDS011;6550;48.650;8.774;2023-04-29T15:35:38;64.30;;;6.47;;
12970;SDS011;6550;48.650;8.774;2023-04-29T15:38:08;66.23;;;6.07;;
12970;SDS011;6550;48.650;8.774;2023-04-29T15:40:34;84.13;;;7.80;;
12970;SDS011;6550;48.650;8.774;2023-04-29T15:43:02;107.87;;;7.93;;
12970;SDS011;6550;48.650;8.774;2023-04-29T15:45:34;143.50;;;10.30;;
12970;SDS011;6550;48.650;8.774;2023-04-29T15:48:01;78.23;;;7.87;;
12970;SDS011;6550;48.650;8.774;2023-04-29T15:50:28;56.10;;;6.60;;
12970;SDS011;6550;48.650;8.774;2023-04-29T15:52:55;42.07;;;5.30;;